Time;durP1;ratioP1;P1;durP2;ratioP2;P2;SDS_P1;SDS_P2;PMS_P1;PMS_P2;Temp;Humidity;BMP_temperature;BMP_pressure;BME280_temperature;BME280_humidity;BME280_pressure;Samples;Min_cycle;Max_cycle;Signal;HPM_P1;HPM_P2
2022/02/01 00:03:35;;;;;;;39.98;17.00;;;;;;;-1.65;81.56;99718.91;1642558;86;25708;-74
2022/02/01 00:06:27;;;;;;;32.65;15.63;;;;;;;-1.65;81.69;99714.98;1638817;86;27701;-74
2022/02/01 00:09:08;;;;;;;43.02;16.70;;;;;;;-1.65;81.61;99717.09;1656372;86;25806;-74
2022/02/01 00:11:40;;;;;;;39.03;15.35;;;;;;;-1.64;81.75;99714.00;1650994;86;26592;-74
2022/02/01 00:14:10;;;;;;;38.92;14.40;;;;;;;-1.66;81.62;99717.23;1650064;86;25887;-74
2022/02/01 00:35:35;;;;;;;26.97;13.58;;;;;;;-1.84;81.89;99741.13;1639302;86;26650;-74
2022/02/01 00:38:13;;;;;;;32.35;14.78;;;;;;;-1.86;81.93;99741.73;1652501;86;25980;-74
2022/02/01 00:40:21;;;;;;;35.52;14.93;;;;;;;-1.88;81.98;99741.84;1635369;86;25961;-74
2022/02/01 00:42:47;;;;;;;34.58;14.85;;;;;;;-1.87;82.03;99748.77;1639765;86;25784;-74
2022/02/01 00:45:13;;;;;;;31.75;13.75;;;;;;;-1.90;82.03;99755.58;1655815;86;27533;-74
2022/02/01 00:47:42;;;;;;;35.50;13.15;;;;;;;-1.88;81.99;99755.47;1639981;86;25938;-74
2022/02/01 00:50:11;;;;;;;34.30;14.07;;;;;;;-1.89;82.04;99751.17;1632177;87;25362;-74
2022/02/01 00:52:36;;;;;;;37.80;14.58;;;;;;;-1.89;82.05;99754.63;1647430;86;26563;-75
2022/02/01 00:55:04;;;;;;;32.83;12.35;;;;;;;-1.91;81.93;99752.62;1631072;87;25994;-74
2022/02/01 00:57:30;;;;;;;32.13;13.35;;;;;;;-1.89;82.04;99759.05;1647573;86;27476;-73
2022/02/01 00:59:56;;;;;;;37.75;15.28;;;;;;;-1.88;82.13;99748.91;1647642;86;25901;-74
2022/02/01 01:02:23;;;;;;;32.42;13.68;;;;;;;-1.88;82.04;99745.78;1630475;87;26542;-75
2022/02/01 01:04:49;;;;;;;35.58;16.25;;;;;;;-1.86;82.01;99752.23;1647824;86;25782;-73
2022/02/01 01:07:15;;;;;;;33.88;12.47;;;;;;;-1.84;81.99;99751.63;1647787;86;25872;-74
2022/02/01 01:09:41;;;;;;;31.35;12.63;;;;;;;-1.82;81.86;99750.51;1620598;86;27461;-74
2022/02/01 01:12:09;;;;;;;37.88;14.40;;;;;;;-1.84;81.77;99747.69;1637647;86;26250;-74
2022/02/01 01:44:46;;;;;;;28.47;12.40;;;;;;;-2.01;81.85;99769.27;1643388;87;25892;-74
2022/02/01 01:53:09;;;;;;;31.85;11.83;;;;;;;-2.00;81.80;99785.34;1637612;87;25842;-74
2022/02/01 01:55:16;;;;;;;36.73;14.00;;;;;;;-2.04;81.76;99788.71;1618179;88;25817;-73
2022/02/01 01:57:44;;;;;;;29.10;11.88;;;;;;;-2.10;81.76;99785.76;1637499;87;25744;-74
2022/02/01 02:00:33;;;;;;;31.68;12.15;;;;;;;-2.10;81.61;99793.63;1638001;86;25827;-74
2022/02/01 02:02:40;;;;;;;30.77;13.95;;;;;;;-2.14;81.73;99793.06;1636798;85;27705;-74
2022/02/01 02:05:07;;;;;;;28.65;11.03;;;;;;;-2.16;81.75;99791.52;1621656;88;26593;-74
2022/02/01 02:07:33;;;;;;;31.00;13.13;;;;;;;-2.17;82.21;99795.92;1637401;87;25806;-74
2022/02/01 02:10:02;;;;;;;34.80;13.68;;;;;;;-2.18;81.81;99801.30;1648291;86;26565;-74
2022/02/01 02:12:56;;;;;;;25.40;11.20;;;;;;;-2.28;81.85;99809.55;1659443;85;26025;-74
2022/02/01 02:15:06;;;;;;;23.45;10.98;;;;;;;-2.28;81.85;99809.55;1654961;86;27443;-74
2022/02/01 02:17:32;;;;;;;33.00;12.63;;;;;;;-2.35;81.74;99811.83;1658926;86;25830;-73
2022/02/01 02:19:58;;;;;;;30.23;12.23;;;;;;;-2.36;81.96;99825.45;1659577;85;26019;-74
2022/02/01 02:22:24;;;;;;;32.58;12.60;;;;;;;-2.35;82.29;99815.77;1659213;85;25863;-74
2022/02/01 02:24:50;;;;;;;28.65;11.97;;;;;;;-2.35;82.08;99819.70;1659435;86;25928;-74
2022/02/01 02:27:19;;;;;;;31.57;13.05;;;;;;;-2.33;82.10;99825.66;1659035;85;27436;-74
2022/02/01 02:29:45;;;;;;;32.80;12.98;;;;;;;-2.35;82.03;99825.78;1659123;86;25790;-73
2022/02/01 02:32:11;;;;;;;36.05;13.62;;;;;;;-2.34;82.03;99831.88;1659046;85;25944;-74
2022/02/01 02:34:39;;;;;;;31.87;12.30;;;;;;;-2.39;82.04;99816.97;1659226;86;25863;-74
2022/02/01 02:37:13;;;;;;;31.40;12.60;;;;;;;-2.41;82.10;99822.35;1659026;85;25742;-74
2022/02/01 02:39:46;;;;;;;36.38;13.15;;;;;;;-2.39;82.04;99815.66;1658086;86;27665;-74
2022/02/01 02:42:15;;;;;;;34.35;15.10;;;;;;;-2.41;81.98;99817.11;1657094;86;26437;-73
2022/02/01 02:47:29;;;;;;;30.92;12.85;;;;;;;-2.42;82.07;99821.17;1664531;83;25758;-74
2022/02/01 02:49:56;;;;;;;28.42;11.05;;;;;;;-2.43;82.23;99829.98;1691822;84;26299;-74
2022/02/01 02:52:26;;;;;;;31.62;13.62;;;;;;;-2.47;82.34;99825.47;1691255;84;27566;-74
2022/02/01 02:54:51;;;;;;;34.30;14.35;;;;;;;-2.47;82.34;99825.47;1691896;83;26039;-74
2022/02/01 02:57:18;;;;;;;28.25;12.10;;;;;;;-2.40;82.16;99838.92;1691043;83;26540;-73
2022/02/01 02:59:44;;;;;;;34.83;13.43;;;;;;;-2.41;82.35;99839.40;1691489;83;25741;-73
2022/02/01 03:02:10;;;;;;;34.43;14.63;;;;;;;-2.39;82.44;99836.64;1691509;83;25981;-74
2022/02/01 03:04:37;;;;;;;27.22;12.50;;;;;;;-2.37;82.21;99842.59;1692128;84;27510;-74
2022/02/01 03:07:06;;;;;;;35.03;14.23;;;;;;;-2.35;82.48;99852.01;1691419;83;26094;-74
2022/02/01 03:09:38;;;;;;;28.67;14.07;;;;;;;-2.38;82.28;99850.97;1684805;84;26123;-74
2022/02/01 03:12:03;;;;;;;30.97;12.65;;;;;;;-2.38;82.45;99847.03;1679745;84;25768;-73
2022/02/01 03:14:47;;;;;;;31.35;13.62;;;;;;;-2.39;82.35;99847.13;1671066;85;25736;-74
2022/02/01 03:17:20;;;;;;;26.77;10.88;;;;;;;-2.41;82.35;99861.69;1669629;85;27473;-74
2022/02/01 03:19:52;;;;;;;26.62;13.28;;;;;;;-2.40;82.55;99858.59;1669581;85;25975;-74
2022/02/01 03:22:32;;;;;;;31.68;12.70;;;;;;;-2.47;82.43;99844.30;1670854;85;26144;-73
2022/02/01 03:25:01;;;;;;;33.15;14.35;;;;;;;-2.44;82.41;99857.17;1671082;85;25843;-74
2022/02/01 03:27:28;;;;;;;33.48;14.10;;;;;;;-2.45;82.40;99855.02;1670944;85;25815;-75
2022/02/01 03:29:54;;;;;;;32.38;12.28;;;;;;;-2.42;82.50;99857.38;1671161;85;27457;-74
2022/02/01 03:32:22;;;;;;;33.40;12.98;;;;;;;-2.42;82.47;99856.58;1670894;85;26349;-74
2022/02/01 03:34:50;;;;;;;29.15;13.25;;;;;;;-2.44;82.53;99854.55;1671299;85;25804;-74
2022/02/01 03:37:17;;;;;;;27.45;12.18;;;;;;;-2.38;82.58;99854.06;1670704;85;25896;-74
2022/02/01 03:39:44;;;;;;;23.18;11.65;;;;;;;-2.35;82.55;99856.41;1671118;85;25739;-74
2022/02/01 03:42:11;;;;;;;32.23;12.85;;;;;;;-2.36;82.46;99854.77;1671031;85;27461;-74
2022/02/01 03:44:37;;;;;;;24.67;12.65;;;;;;;-2.34;82.51;99852.85;1671118;85;25738;-74
2022/02/01 03:47:04;;;;;;;26.73;12.30;;;;;;;-2.34;82.37;99852.85;1662657;82;25815;-73
2022/02/01 03:49:34;;;;;;;34.08;14.10;;;;;;;-2.41;82.38;99841.18;1615984;88;26116;-74
2022/02/01 03:52:01;;;;;;;34.90;14.00;;;;;;;-2.32;82.42;99848.31;1603801;89;26266;-74
2022/02/01 03:54:30;;;;;;;28.80;11.43;;;;;;;-2.32;82.39;99854.88;1604385;88;27459;-74
2022/02/01 03:56:58;;;;;;;26.42;11.65;;;;;;;-2.33;82.38;99856.31;1603786;88;26068;-74
2022/02/01 03:59:25;;;;;;;27.42;12.15;;;;;;;-2.33;82.48;99866.30;1603777;89;25893;-74
2022/02/01 04:01:59;;;;;;;30.20;13.20;;;;;;;-2.33;82.42;99855.81;1603841;88;25732;-74
2022/02/01 04:04:28;;;;;;;28.07;12.82;;;;;;;-2.35;82.43;99866.44;1603056;89;25836;-74
2022/02/01 04:06:55;;;;;;;25.97;12.58;;;;;;;-2.32;82.56;99865.36;1603764;89;28195;-75
2022/02/01 04:09:23;;;;;;;27.65;12.82;;;;;;;-2.31;82.57;99870.98;1594748;88;25999;-74
2022/02/01 04:11:53;;;;;;;24.47;11.10;;;;;;;-2.33;82.26;99857.63;1596549;88;25971;-73
2022/02/01 04:14:23;;;;;;;37.48;14.47;;;;;;;-2.33;82.26;99857.63;1613049;88;26472;-73
2022/02/01 04:16:48;;;;;;;28.40;12.68;;;;;;;-2.29;82.58;99859.88;1612502;87;26203;-74
2022/02/01 04:19:14;;;;;;;27.77;12.40;;;;;;;-2.31;82.50;99863.11;1612234;87;27448;-73
2022/02/01 04:21:54;;;;;;;30.40;12.00;;;;;;;-2.31;82.61;99870.98;1612648;87;25840;-74
2022/02/01 04:24:11;;;;;;;33.05;14.00;;;;;;;-2.30;82.67;99874.41;1611973;88;25772;-74
2022/02/01 04:26:37;;;;;;;27.58;11.68;;;;;;;-2.28;83.03;99877.73;1612885;87;25836;-74
2022/02/01 04:29:04;;;;;;;31.00;12.28;;;;;;;-2.30;82.63;99865.23;1612344;88;25794;-74
2022/02/01 04:31:30;;;;;;;26.75;12.33;;;;;;;-2.29;82.50;99865.59;1612711;88;28125;-74
2022/02/01 04:33:56;;;;;;;29.25;12.37;;;;;;;-2.30;82.61;99858.67;1612279;88;26493;-74
2022/02/01 04:36:22;;;;;;;29.23;12.68;;;;;;;-2.31;82.63;99857.02;1612893;87;25771;-74
2022/02/01 04:38:56;;;;;;;23.80;12.55;;;;;;;-2.29;82.67;99850.70;1614403;87;25815;-74
2022/02/01 04:41:16;;;;;;;31.62;13.48;;;;;;;-2.28;82.50;99846.27;1627351;86;26012;-74
2022/02/01 04:43:43;;;;;;;30.35;12.73;;;;;;;-2.34;82.45;99833.18;1634203;87;27480;-74
2022/02/01 04:46:10;;;;;;;28.55;12.43;;;;;;;-2.30;82.53;99845.09;1628624;86;25945;-75
2022/02/01 04:48:36;;;;;;;29.82;12.63;;;;;;;-2.32;82.44;99849.63;1625754;85;25899;-75
2022/02/01 04:51:02;;;;;;;26.97;12.73;;;;;;;-2.36;82.39;99849.05;1626885;86;26270;-74
2022/02/01 04:53:29;;;;;;;29.67;12.53;;;;;;;-2.36;82.54;99850.36;1631608;87;25879;-74
2022/02/01 04:55:55;;;;;;;27.87;12.05;;;;;;;-2.35;82.63;99850.70;1625583;87;27475;-74
2022/02/01 04:58:25;;;;;;;30.02;12.37;;;;;;;-2.36;82.66;99850.36;1621182;87;25966;-74
2022/02/01 05:00:52;;;;;;;30.52;12.70;;;;;;;-2.36;82.67;99846.90;1614597;87;26548;-74
2022/02/01 05:03:18;;;;;;;27.93;12.88;;;;;;;-2.39;82.51;99861.55;1628716;85;25836;-74
2022/02/01 05:05:44;;;;;;;33.85;13.30;;;;;;;-2.39;82.51;99861.55;1615612;87;25818;-74
2022/02/01 05:08:12;;;;;;;32.65;13.55;;;;;;;-2.42;82.65;99866.56;1622499;87;27598;-74
2022/02/01 05:10:40;;;;;;;31.23;12.40;;;;;;;-2.41;82.53;99877.42;1646206;86;25751;-74
2022/02/01 05:16:12;;;;;;;33.15;13.45;;;;;;;-2.42;82.62;99873.11;1627531;87;25882;-74
2022/02/01 05:18:47;;;;;;;31.23;12.98;;;;;;;-2.41;82.66;99881.36;1626849;88;25788;-74
2022/02/01 05:21:22;;;;;;;27.45;11.65;;;;;;;-2.42;82.74;99879.67;1604765;87;27495;-74
2022/02/01 05:23:38;;;;;;;22.00;10.78;;;;;;;-2.41;82.80;99881.36;1600401;87;26515;-74
2022/02/01 05:26:04;;;;;;;28.57;13.38;;;;;;;-2.39;82.70;99879.91;1616683;88;25827;-73
2022/02/01 05:28:31;;;;;;;29.45;13.98;;;;;;;-2.43;82.72;99878.49;1617438;87;26235;-73
2022/02/01 05:31:02;;;;;;;28.92;13.05;;;;;;;-2.42;82.82;99878.36;1617617;87;25829;-74
2022/02/01 05:33:30;;;;;;;31.90;12.55;;;;;;;-2.39;82.71;99881.22;1638338;87;27554;-74
2022/02/01 05:35:59;;;;;;;28.73;11.80;;;;;;;-2.39;82.59;99878.13;1630776;87;25704;-73
2022/02/01 05:38:25;;;;;;;30.57;13.45;;;;;;;-2.41;82.69;99882.66;1625233;86;26580;-74
2022/02/01 05:40:51;;;;;;;29.15;13.68;;;;;;;-2.41;82.88;99885.28;1624534;87;26608;-74
2022/02/01 05:43:26;;;;;;;34.18;14.20;;;;;;;-2.41;82.95;99886.59;1632788;87;25992;-74
2022/02/01 05:45:57;;;;;;;33.42;13.68;;;;;;;-2.38;83.05;99886.84;1635219;87;27708;-74
2022/02/01 05:48:24;;;;;;;29.23;14.03;;;;;;;-2.36;83.16;99885.77;1632327;86;25818;-74
2022/02/01 05:50:54;;;;;;;32.70;14.33;;;;;;;-2.34;83.18;99890.88;1633427;86;25871;-74
2022/02/01 05:53:22;;;;;;;32.13;15.27;;;;;;;-2.37;83.23;99891.95;1625824;86;26264;-74
2022/02/01 05:55:49;;;;;;;26.20;13.15;;;;;;;-2.34;83.36;99896.13;1642945;86;26613;-74
2022/02/01 05:58:16;;;;;;;29.82;13.55;;;;;;;-2.32;83.40;99899.92;1640830;85;27660;-74
2022/02/01 06:00:44;;;;;;;29.80;12.28;;;;;;;-2.30;83.43;99892.77;1611247;87;25909;-74
2022/02/01 06:03:10;;;;;;;33.88;14.78;;;;;;;-2.29;83.49;99897.91;1603564;87;26731;-74
2022/02/01 06:05:37;;;;;;;40.43;16.00;;;;;;;-2.30;83.57;99904.09;1628618;86;26277;-74
2022/02/01 06:08:04;;;;;;;33.83;15.08;;;;;;;-2.26;83.79;99906.83;1623828;87;25865;-73
2022/02/01 06:10:30;;;;;;;29.27;12.58;;;;;;;-2.26;83.79;99906.83;1636154;86;27453;-74
2022/02/01 06:12:57;;;;;;;35.58;15.08;;;;;;;-2.24;83.75;99899.67;1627735;86;25854;-74
2022/02/01 06:15:27;;;;;;;28.87;13.05;;;;;;;-2.22;83.85;99903.50;1630081;87;25801;-74
2022/02/01 06:17:54;;;;;;;31.97;14.18;;;;;;;-2.20;83.91;99906.33;1629848;87;26480;-74
2022/02/01 06:20:22;;;;;;;41.70;15.75;;;;;;;-2.19;83.90;99892.28;1630462;87;25301;-73
2022/02/01 06:22:48;;;;;;;36.05;14.05;;;;;;;-2.19;83.90;99892.28;1631339;87;27449;-74
2022/02/01 06:25:16;;;;;;;34.43;14.90;;;;;;;-2.11;84.04;99901.66;1610659;88;25820;-74
2022/02/01 06:27:42;;;;;;;26.70;12.93;;;;;;;-2.09;84.08;99891.88;1588541;89;25876;-74
2022/02/01 06:30:10;;;;;;;24.72;12.88;;;;;;;-2.07;84.05;99890.44;1589097;90;25826;-74
2022/02/01 06:32:39;;;;;;;29.07;13.60;;;;;;;-2.06;84.11;99882.46;1610970;88;25747;-74
2022/02/01 06:35:08;;;;;;;30.70;12.15;;;;;;;-2.08;84.07;99883.53;1618414;88;27475;-73
2022/02/01 06:37:35;;;;;;;35.58;14.80;;;;;;;-2.05;84.14;99888.55;1613461;88;25774;-74
2022/02/01 06:40:03;;;;;;;33.80;13.32;;;;;;;-2.01;84.17;99892.59;1609085;88;26470;-74
2022/02/01 06:42:29;;;;;;;27.30;12.15;;;;;;;-1.99;84.35;99893.30;1609091;88;26481;-74
2022/02/01 06:44:55;;;;;;;32.10;13.78;;;;;;;-1.96;84.13;99889.93;1614481;88;25771;-74
2022/02/01 06:47:21;;;;;;;34.27;13.70;;;;;;;-1.95;84.21;99888.98;1610747;86;33662;-74
2022/02/01 06:49:48;;;;;;;28.47;12.18;;;;;;;-1.91;84.05;99889.09;1656196;85;25847;-74
2022/02/01 06:52:14;;;;;;;34.18;14.47;;;;;;;-1.92;84.07;99891.34;1657586;86;25824;-74
2022/02/01 06:54:41;;;;;;;33.20;14.03;;;;;;;-1.85;84.30;99905.64;1659603;84;26216;-74
2022/02/01 06:57:07;;;;;;;29.07;14.00;;;;;;;-1.82;84.22;99900.13;1662405;84;26396;-74
2022/02/01 06:59:34;;;;;;;29.52;15.70;;;;;;;-1.81;84.18;99902.27;1662490;84;27454;-74
2022/02/01 07:02:00;;;;;;;30.02;14.13;;;;;;;-1.79;84.30;99899.05;1665259;84;25870;-74
2022/02/01 07:04:26;;;;;;;32.00;12.47;;;;;;;-1.78;84.35;99895.00;1667094;84;25853;-76
2022/02/01 07:06:52;;;;;;;34.03;15.13;;;;;;;-1.75;84.45;99899.98;1669461;84;25870;-75
2022/02/01 07:09:21;;;;;;;25.27;12.25;;;;;;;-1.72;84.46;99904.16;1661898;86;26723;-74
2022/02/01 07:11:46;;;;;;;29.87;12.47;;;;;;;-1.71;84.51;99901.90;1672460;84;28791;-73
2022/02/01 07:14:12;;;;;;;27.00;12.80;;;;;;;-1.72;84.47;99913.34;1659981;85;25495;-74
2022/02/01 07:16:39;;;;;;;27.15;11.48;;;;;;;-1.72;84.46;99912.03;1640125;85;25806;-74
2022/02/01 07:19:05;;;;;;;27.98;12.30;;;;;;;-1.73;84.53;99916.44;1662670;85;26137;-73
2022/02/01 07:21:31;;;;;;;26.37;11.88;;;;;;;-1.75;84.65;99917.05;1671098;85;25924;-73
2022/02/01 07:24:00;;;;;;;25.55;11.83;;;;;;;-1.74;84.80;99919.20;1670799;85;28245;-73
2022/02/01 07:26:26;;;;;;;27.35;12.68;;;;;;;-1.72;85.21;99924.69;1671085;85;26348;-74
2022/02/01 07:28:52;;;;;;;26.93;12.03;;;;;;;-1.68;85.12;99925.25;1670867;85;26040;-73
2022/02/01 07:31:18;;;;;;;23.60;11.75;;;;;;;-1.63;85.17;99919.16;1671175;85;25719;-73
2022/02/01 07:33:46;;;;;;;31.55;13.80;;;;;;;-1.58;85.30;99918.28;1671470;85;25809;-72
2022/02/01 07:36:16;;;;;;;32.48;12.60;;;;;;;-1.54;85.33;99919.72;1670894;85;28274;-73
2022/02/01 07:38:40;;;;;;;26.48;11.15;;;;;;;-1.50;85.36;99924.23;1670384;85;26109;-73
2022/02/01 07:41:06;;;;;;;22.85;10.85;;;;;;;-1.46;85.45;99922.54;1670866;85;25989;-75
2022/02/01 07:43:32;;;;;;;26.20;12.05;;;;;;;-1.44;85.42;99924.55;1670987;85;25842;-75
2022/02/01 07:46:06;;;;;;;27.65;12.05;;;;;;;-1.42;85.43;99920.48;1671399;85;25803;-74
2022/02/01 07:48:30;;;;;;;29.77;12.25;;;;;;;-1.39;85.62;99921.05;1660199;84;28230;-74
2022/02/01 07:50:56;;;;;;;25.62;11.03;;;;;;;-1.33;85.71;99922.34;1659316;86;26585;-75
2022/02/01 07:53:23;;;;;;;27.37;13.50;;;;;;;-1.30;85.59;99912.41;1659316;86;25822;-73
2022/02/01 07:55:49;;;;;;;28.25;13.05;;;;;;;-1.26;85.62;99912.50;1659286;86;25788;-75
2022/02/01 07:58:16;;;;;;;26.55;11.35;;;;;;;-1.22;85.57;99906.53;1659308;86;26806;-73
2022/02/01 08:00:42;;;;;;;24.00;12.10;;;;;;;-1.17;85.60;99902.53;1659248;85;28673;-75
2022/02/01 08:03:11;;;;;;;23.45;10.75;;;;;;;-1.15;85.52;99901.08;1664321;85;25967;-74
2022/02/01 08:05:37;;;;;;;23.27;11.05;;;;;;;-1.15;85.27;99903.71;1659438;86;26469;-73
2022/02/01 08:08:04;;;;;;;30.62;13.00;;;;;;;-1.14;85.37;99905.39;1658863;86;25890;-72
2022/02/01 08:10:44;;;;;;;32.45;14.70;;;;;;;-1.10;85.58;99905.48;1658196;85;25854;-73
2022/02/01 08:18:48;;;;;;;28.45;12.93;;;;;;;-1.01;85.68;99909.97;1616296;87;26075;-74
2022/02/01 08:21:03;;;;;;;29.45;13.80;;;;;;;-0.98;85.85;99913.16;1628423;85;25760;-74
2022/02/01 08:23:30;;;;;;;35.52;13.20;;;;;;;-0.95;85.82;99912.91;1654158;86;26046;-73
2022/02/01 08:25:58;;;;;;;29.70;13.43;;;;;;;-0.94;85.76;99915.87;1630965;87;27525;-76
2022/02/01 08:28:24;;;;;;;30.02;14.95;;;;;;;-0.90;85.75;99909.89;1630975;87;25821;-74
2022/02/01 08:30:54;;;;;;;30.17;13.95;;;;;;;-0.85;85.82;99911.63;1631598;87;26037;-74
2022/02/01 08:33:25;;;;;;;28.95;13.53;;;;;;;-0.82;85.79;99912.21;1630993;87;26254;-73
2022/02/01 08:35:51;;;;;;;38.75;14.78;;;;;;;-0.77;85.77;99914.45;1631610;87;26090;-74
2022/02/01 08:38:18;;;;;;;29.10;14.07;;;;;;;-0.73;85.56;99918.48;1631270;87;27501;-74
2022/02/01 08:40:46;;;;;;;25.60;13.20;;;;;;;-0.66;85.73;99919.59;1631233;87;25928;-75
2022/02/01 08:43:14;;;;;;;30.52;13.10;;;;;;;-0.60;85.68;99924.35;1631271;87;26242;-75
2022/02/01 08:45:41;;;;;;;26.25;13.68;;;;;;;-0.55;85.73;99917.35;1631245;87;25769;-73
2022/02/01 08:48:07;;;;;;;38.65;14.80;;;;;;;-0.51;85.59;99919.59;1636185;85;25830;-74
2022/02/01 08:50:35;;;;;;;34.88;15.85;;;;;;;-0.47;85.54;99907.83;1652170;86;27513;-75
2022/02/01 08:53:14;;;;;;;38.67;16.90;;;;;;;-0.41;85.34;99903.85;1652082;86;25826;-73
2022/02/01 08:56:01;;;;;;;31.35;14.05;;;;;;;-0.37;85.12;99907.40;1663009;85;26139;-73
2022/02/01 08:58:07;;;;;;;45.30;19.57;;;;;;;-0.33;84.91;99903.53;1660097;85;25844;-74
2022/02/01 09:00:34;;;;;;;42.55;23.18;;;;;;;-0.30;84.84;99902.43;1662461;85;26083;-74
2022/02/01 09:03:05;;;;;;;42.67;20.35;;;;;;;-0.26;84.62;99902.51;1665724;85;28112;-74
2022/02/01 09:05:31;;;;;;;39.25;19.57;;;;;;;-0.23;84.50;99904.85;1669127;85;26164;-75
2022/02/01 09:08:01;;;;;;;39.90;19.10;;;;;;;-0.21;83.99;99905.55;1662704;86;25822;-74
2022/02/01 09:10:30;;;;;;;34.00;18.10;;;;;;;-0.24;83.58;99907.98;1665800;85;27156;-73
2022/02/01 09:12:57;;;;;;;38.33;19.12;;;;;;;-0.25;83.53;99906.78;1654226;86;26035;-75
2022/02/01 09:15:26;;;;;;;27.73;13.53;;;;;;;-0.24;84.07;99909.30;1658218;85;27540;-74
2022/02/01 09:17:51;;;;;;;34.50;16.20;;;;;;;-0.19;83.73;99908.39;1657866;86;25789;-75
2022/02/01 09:20:19;;;;;;;41.98;18.52;;;;;;;-0.18;83.64;99905.28;1658457;85;25520;-75
2022/02/01 09:22:45;;;;;;;33.33;18.15;;;;;;;-0.18;83.69;99897.39;1658335;86;26277;-74
2022/02/01 09:25:14;;;;;;;70.28;33.58;;;;;;;-0.18;83.51;99897.39;1658125;85;25976;-74
2022/02/01 09:27:40;;;;;;;42.38;22.17;;;;;;;-0.14;83.80;99898.78;1658220;85;27474;-75
2022/02/01 09:30:08;;;;;;;39.00;16.95;;;;;;;-0.08;83.75;99892.48;1658385;86;26265;-75
2022/02/01 09:32:34;;;;;;;34.43;16.55;;;;;;;-0.06;83.42;99885.77;1658356;85;26431;-75
2022/02/01 09:35:01;;;;;;;35.70;17.62;;;;;;;-0.03;83.42;99881.08;1658645;85;26160;-74
2022/02/01 09:37:27;;;;;;;33.10;15.40;;;;;;;0.00;83.47;99884.73;1658466;86;26058;-75
2022/02/01 09:39:53;;;;;;;31.97;15.00;;;;;;;0.02;83.36;99880.67;1658157;86;28013;-74
2022/02/01 09:42:24;;;;;;;37.75;16.75;;;;;;;0.03;82.66;99881.00;1658597;85;25852;-75
2022/02/01 09:44:52;;;;;;;32.70;16.35;;;;;;;0.01;82.99;99885.57;1658004;85;25945;-75
2022/02/01 09:47:16;;;;;;;33.18;14.65;;;;;;;0.04;83.06;99887.11;1654307;85;26280;-74
2022/02/01 09:49:45;;;;;;;34.63;14.95;;;;;;;0.09;83.51;99887.03;1658213;85;25779;-74
2022/02/01 09:52:11;;;;;;;32.78;13.08;;;;;;;0.14;83.60;99880.88;1658260;86;27546;-74
2022/02/01 09:54:38;;;;;;;36.55;15.43;;;;;;;0.20;83.52;99877.69;1658050;85;25974;-77
2022/02/01 09:57:08;;;;;;;35.13;15.60;;;;;;;0.24;83.48;99876.44;1658302;85;26002;-74
2022/02/01 09:59:34;;;;;;;35.20;15.40;;;;;;;0.29;83.61;99870.27;1657866;86;25865;-74
2022/02/01 10:02:10;;;;;;;27.65;13.98;;;;;;;0.34;83.53;99866.72;1658900;85;25814;-73
2022/02/01 10:04:36;;;;;;;34.13;14.50;;;;;;;0.38;83.27;99856.75;1662632;85;28319;-78
2022/02/01 10:07:10;;;;;;;40.03;19.85;;;;;;;0.44;83.51;99862.77;1662154;85;25763;-74
2022/02/01 10:09:52;;;;;;;36.10;17.87;;;;;;;0.48;83.29;99857.56;1673468;85;26517;-74
2022/02/01 10:12:19;;;;;;;57.13;25.68;;;;;;;0.50;83.15;99863.04;1676815;85;25917;-78
2022/02/01 10:15:06;;;;;;;40.48;16.87;;;;;;;0.52;83.29;99858.94;1672785;83;25820;-78
2022/02/01 10:17:32;;;;;;;39.58;18.75;;;;;;;0.55;83.17;99854.23;1655223;85;28331;-76
2022/02/01 10:19:58;;;;;;;37.48;17.35;;;;;;;0.53;82.92;99846.96;1663638;85;25896;-74
2022/02/01 10:22:35;;;;;;;28.15;13.83;;;;;;;0.57;83.20;99847.02;1663888;85;26456;-74
2022/02/01 10:25:06;;;;;;;30.97;17.67;;;;;;;0.62;83.14;99837.38;1663643;85;26543;-74
2022/02/01 10:27:34;;;;;;;;;;;;;;;0.63;82.71;99834.59;1651812;86;26614;-73
2022/02/01 10:30:17;;;;;;;43.40;21.70;;;;;;;0.65;82.51;99824.73;1663871;86;27483;-74
2022/02/01 10:33:16;;;;;;;43.73;18.92;;;;;;;0.68;83.05;99829.70;1663611;85;25887;-76
2022/02/01 10:35:33;;;;;;;32.67;15.23;;;;;;;0.78;83.42;99819.98;1662318;85;25784;-74
2022/02/01 10:38:00;;;;;;;26.77;12.73;;;;;;;0.84;82.90;99808.50;1662829;85;26496;-73
2022/02/01 10:40:46;;;;;;;38.48;17.27;;;;;;;0.82;82.08;99808.66;1663746;85;25788;-77
2022/02/01 10:43:26;;;;;;;33.53;15.93;;;;;;;0.83;82.77;99791.04;1663415;85;28264;-76
2022/02/01 10:45:56;;;;;;;32.53;15.18;;;;;;;0.87;82.82;99791.09;1669155;85;25925;-76
2022/02/01 10:48:26;;;;;;;31.30;13.65;;;;;;;0.88;82.79;99779.59;1672505;82;26864;-78
2022/02/01 10:51:07;;;;;;;26.30;12.13;;;;;;;0.90;82.60;99782.39;1677424;85;25753;-77
2022/02/01 10:53:35;;;;;;;30.77;14.98;;;;;;;0.90;82.37;99783.71;1677231;85;26033;-76
2022/02/01 10:56:06;;;;;;;28.25;14.05;;;;;;;0.90;82.78;99787.66;1677674;85;27467;-81
2022/02/01 10:58:33;;;;;;;35.75;14.38;;;;;;;0.93;82.35;99779.48;1669907;85;25831;-73
2022/02/01 11:01:02;;;;;;;36.20;14.47;;;;;;;0.96;82.75;99775.25;1701032;84;25472;-73
2022/02/01 11:03:30;;;;;;;40.38;21.33;;;;;;;1.06;83.34;99773.86;1683433;84;25840;-73
2022/02/01 11:06:00;;;;;;;37.58;15.93;;;;;;;1.16;83.39;99761.45;1705843;83;25315;-76
2022/02/01 11:08:30;;;;;;;32.80;14.95;;;;;;;1.26;83.24;99757.78;1693250;83;27483;-76
2022/02/01 11:11:02;;;;;;;30.95;13.83;;;;;;;1.35;82.79;99757.37;1677481;85;25829;-76
2022/02/01 11:13:44;;;;;;;32.28;14.85;;;;;;;1.39;81.89;99754.30;1677305;85;26209;-77
2022/02/01 11:16:15;;;;;;;30.97;12.82;;;;;;;1.42;82.16;99751.38;1676780;85;26495;-79
2022/02/01 11:19:03;;;;;;;29.63;14.15;;;;;;;1.43;81.67;99741.66;1670451;85;26023;-77
2022/02/01 11:21:43;;;;;;;31.70;13.78;;;;;;;1.49;81.11;99735.77;1677318;85;27484;-76
2022/02/01 11:24:31;;;;;;;29.87;13.10;;;;;;;1.50;81.66;99739.58;1676466;84;25916;-78
2022/02/01 11:27:03;;;;;;;34.60;15.23;;;;;;;1.50;81.15;99734.77;1676092;85;25874;-74
2022/02/01 11:30:13;;;;;;;27.85;13.35;;;;;;;1.53;81.59;99732.69;1662787;85;25753;-75
2022/02/01 11:32:04;;;;;;;28.80;14.45;;;;;;;1.56;81.57;99735.52;1644746;85;26486;-75
2022/02/01 11:34:39;;;;;;;29.75;13.55;;;;;;;1.57;81.58;99721.33;1669291;84;27451;-74
2022/02/01 11:37:10;;;;;;;32.85;15.23;;;;;;;1.58;81.31;99711.61;1669600;84;25914;-73
2022/02/01 11:39:52;;;;;;;26.12;13.43;;;;;;;1.62;81.59;99711.64;1671670;84;25835;-74
2022/02/01 11:42:20;;;;;;;26.93;13.43;;;;;;;1.69;81.80;99702.95;1682788;84;25828;-75
2022/02/01 11:44:47;;;;;;;26.07;13.60;;;;;;;1.79;81.89;99698.92;1684639;83;25898;-74
2022/02/01 11:47:20;;;;;;;32.70;16.42;;;;;;;1.83;81.40;99690.55;1686069;83;27514;-75
2022/02/01 11:49:55;;;;;;;27.75;14.53;;;;;;;1.88;81.70;99692.73;1671319;84;25814;-74
2022/02/01 11:52:25;;;;;;;35.45;16.57;;;;;;;1.85;80.73;99686.42;1676000;85;25843;-72
2022/02/01 11:55:05;;;;;;;35.55;15.45;;;;;;;1.82;81.08;99694.67;1677997;84;25799;-74
2022/02/01 11:57:32;;;;;;;34.38;16.25;;;;;;;1.82;81.04;99683.59;1683157;84;25736;-73
2022/02/01 12:00:08;;;;;;;33.75;16.70;;;;;;;1.77;80.44;99689.84;1686283;84;27462;-75
2022/02/01 12:02:42;;;;;;;39.88;18.10;;;;;;;1.70;79.90;99683.98;1660799;85;26284;-73
2022/02/01 12:05:16;;;;;;;39.85;18.75;;;;;;;1.66;80.00;99689.23;1659869;84;25814;-73
2022/02/01 12:08:12;;;;;;;44.03;20.37;;;;;;;1.63;80.29;99685.09;1668473;85;25851;-75
2022/02/01 12:10:42;;;;;;;44.77;19.25;;;;;;;1.66;80.72;99680.00;1668780;85;26133;-74
2022/02/01 12:13:11;;;;;;;38.60;16.40;;;;;;;1.66;80.69;99675.55;1658526;85;27451;-74
2022/02/01 12:15:41;;;;;;;58.55;23.70;;;;;;;1.67;80.36;99664.00;1665415;83;26542;-76
2022/02/01 12:18:28;;;;;;;51.83;19.60;;;;;;;1.68;80.50;99663.03;1663173;85;26492;-74
2022/02/01 12:21:09;;;;;;;61.20;26.25;;;;;;;1.71;80.47;99654.79;1644129;86;26281;-74
2022/02/01 12:23:35;;;;;;;41.00;19.98;;;;;;;1.75;80.53;99655.33;1665517;84;26512;-76
2022/02/01 12:26:02;;;;;;;49.05;23.90;;;;;;;1.75;80.39;99650.89;1667849;84;27452;-75
2022/02/01 12:28:31;;;;;;;37.60;17.65;;;;;;;1.76;80.18;99651.20;1667717;83;26153;-75
2022/02/01 12:31:12;;;;;;;27.98;16.15;;;;;;;1.78;79.97;99648.41;1666672;85;26480;-75
2022/02/01 12:33:42;;;;;;;29.65;14.20;;;;;;;1.80;79.74;99649.08;1665591;85;25816;-76
2022/02/01 12:36:10;;;;;;;26.73;12.90;;;;;;;1.75;79.49;99655.33;1667315;85;26048;-75